Time,TemperatureF,DewpointF,PressureIn,WindDirection,WindDirectionDegrees,WindSpeedMPH,WindSpeedGustMPH,Humidity,HourlyPrecipIn,Conditions,Clouds,dailyrainin,SolarRadiationWatts/m^2,UVIndex,SoftwareType,DateUTC
2026-05-03 00:04:57,45.6,44,29.98,ESE,123,0,0,94,0.00,,,0.00,0,0,n/a,2026-05-03T04:04:57Z
2026-05-03 00:09:56,45.3,43.7,29.98,ESE,123,0,0,94,0.00,,,0.00,0,0,n/a,2026-05-03T04:09:56Z
2026-05-03 00:14:59,45,43.4,29.98,ESE,123,0,0,94,0.00,,,0.00,0,0,n/a,2026-05-03T04:14:59Z
2026-05-03 00:19:57,44.8,43.3,29.98,ESE,123,0,0,94,0.00,,,0.00,0,0,n/a,2026-05-03T04:19:57Z
2026-05-03 00:24:57,44.8,43.2,29.98,ESE,123,0,0,94,0.00,,,0.00,0,0,n/a,2026-05-03T04:24:57Z
2026-05-03 00:29:59,44.6,43,29.98,ESE,123,0,0,94,0.00,,,0.00,0,0,n/a,2026-05-03T04:29:59Z
2026-05-03 00:34:59,44.4,42.8,29.98,ESE,123,0,0,94,0.00,,,0.00,0,0,n/a,2026-05-03T04:34:59Z
2026-05-03 00:39:58,44.2,42.6,29.98,ESE,123,0,0,94,0.00,,,0.00,0,0,n/a,2026-05-03T04:39:58Z
2026-05-03 00:44:56,44,42.4,29.98,ESE,123,0,0,94,0.00,,,0.00,0,0,n/a,2026-05-03T04:44:56Z
2026-05-03 00:49:59,43.8,42.2,29.98,ESE,123,0,0,94,0.00,,,0.00,0,0,n/a,2026-05-03T04:49:59Z
2026-05-03 00:54:58,43.5,41.9,29.98,ESE,123,0,0,94,0.00,,,0.00,0,0,n/a,2026-05-03T04:54:58Z
2026-05-03 00:59:56,43.6,42,29.98,ESE,123,0.3,1.2,94,0.00,,,0.00,0,0,n/a,2026-05-03T04:59:56Z
2026-05-03 01:04:56,43.6,42.1,29.98,NE,56,1.2,2.4,94.3,0.00,,,0.00,0,0,n/a,2026-05-03T05:04:56Z
2026-05-03 01:09:56,43.9,42.6,29.98,NNE,25,0.8,2.4,95,0.00,,,0.00,0,0,n/a,2026-05-03T05:09:56Z
2026-05-03 01:14:55,44.2,42.9,29.98,North,8,0.5,2.4,95,0.00,,,0.00,0,0,n/a,2026-05-03T05:14:55Z
2026-05-03 01:19:58,44.4,43.1,29.98,North,349,0.9,2.4,95,0.00,,,0.00,0,0,n/a,2026-05-03T05:19:58Z
2026-05-03 01:24:57,44.5,43.2,29.98,NNW,342,0.6,2.4,95,0.00,,,0.00,0,0,n/a,2026-05-03T05:24:57Z
2026-05-03 01:29:59,44.5,43.2,29.98,NNW,342,0,1.2,95,0.00,,,0.00,0,0,n/a,2026-05-03T05:29:59Z
2026-05-03 01:34:59,44.4,43.1,29.98,NNW,342,0,0,95,0.00,,,0.00,0,0,n/a,2026-05-03T05:34:59Z
2026-05-03 01:39:57,44.1,42.8,29.98,NNW,342,0,0,95,0.00,,,0.00,0,0,n/a,2026-05-03T05:39:57Z
2026-05-03 01:44:56,43.9,42.6,29.98,NNW,342,0,0,95,0.00,,,0.00,0,0,n/a,2026-05-03T05:44:56Z
2026-05-03 01:49:59,43.9,42.6,29.98,NNW,342,0,0,95,0.00,,,0.00,0,0,n/a,2026-05-03T05:49:59Z
2026-05-03 01:54:58,43.8,42.5,29.98,NNW,342,0,0,95,0.00,,,0.00,0,0,n/a,2026-05-03T05:54:58Z
2026-05-03 01:59:56,43.6,42.3,29.98,NNW,342,0,0,95,0.00,,,0.00,0,0,n/a,2026-05-03T05:59:56Z
2026-05-03 02:04:57,43.3,42,29.98,NNW,342,0,0,95,0.00,,,0.00,0,0,n/a,2026-05-03T06:04:57Z
2026-05-03 02:09:57,43.1,41.8,29.98,NNW,342,0.1,1.2,95,0.00,,,0.00,0,0,n/a,2026-05-03T06:09:57Z
2026-05-03 02:14:57,42.9,41.6,29.98,NNW,342,0.5,1.2,95,0.00,,,0.00,0,0,n/a,2026-05-03T06:14:57Z
2026-05-03 02:19:59,42.7,41.4,29.98,NNW,342,0.2,1.2,95,0.00,,,0.00,0,0,n/a,2026-05-03T06:19:59Z
2026-05-03 02:24:58,42.5,41.2,29.98,NNW,342,0,1.2,95,0.00,,,0.00,0,0,n/a,2026-05-03T06:24:58Z
2026-05-03 02:29:57,42.3,41,29.99,NNW,342,0.2,1.2,95,0.00,,,0.00,0,0,n/a,2026-05-03T06:29:57Z
2026-05-03 02:34:56,42,40.7,29.99,NNW,342,0.1,1.2,95,0.00,,,0.00,0,0,n/a,2026-05-03T06:34:56Z
2026-05-03 02:39:59,41.7,40.3,29.99,NNW,342,0,0,94.5,0.00,,,0.00,0,0,n/a,2026-05-03T06:39:59Z
2026-05-03 02:44:58,41.5,40.2,29.99,NNW,342,0,0,95,0.00,,,0.00,0,0,n/a,2026-05-03T06:44:58Z
2026-05-03 02:49:56,41.3,39.8,29.99,NNW,342,0,0,94.4,0.00,,,0.00,0,0,n/a,2026-05-03T06:49:56Z
2026-05-03 02:54:59,41,39.5,29.99,NNW,342,0,0,94.3,0.00,,,0.00,0,0,n/a,2026-05-03T06:54:59Z
2026-05-03 02:59:58,40.8,39.5,29.99,NNW,342,0,0,95,0.00,,,0.00,0,0,n/a,2026-05-03T06:59:58Z
2026-05-03 03:04:59,40.5,39,29.99,NNW,342,0,0,94.1,0.00,,,0.00,0,0,n/a,2026-05-03T07:04:59Z
2026-05-03 03:09:59,40.3,38.8,29.99,NNW,342,0,0,94.6,0.00,,,0.00,0,0,n/a,2026-05-03T07:09:59Z
2026-05-03 03:14:59,40,38.6,30.00,NNW,342,0,0,94.5,0.00,,,0.00,0,0,n/a,2026-05-03T07:14:59Z
2026-05-03 03:19:57,40,38.6,30.00,NNW,342,0.2,1.2,94.7,0.00,,,0.00,0,0,n/a,2026-05-03T07:19:57Z
2026-05-03 03:24:56,40.4,39.1,30.00,NNW,342,0.1,1.2,95,0.00,,,0.00,0,0,n/a,2026-05-03T07:24:56Z
2026-05-03 03:29:58,40.5,39.2,30.00,NNW,342,0,0,95,0.00,,,0.00,0,0,n/a,2026-05-03T07:29:58Z
2026-05-03 03:34:58,40.4,39.1,30.00,NNW,342,0,0,95,0.00,,,0.00,0,0,n/a,2026-05-03T07:34:58Z
2026-05-03 03:39:57,40.3,39,30.00,NNW,342,0,0,95,0.00,,,0.00,0,0,n/a,2026-05-03T07:39:57Z
2026-05-03 03:44:56,40.1,38.8,30.01,NNW,342,0,0,95,0.00,,,0.00,0,0,n/a,2026-05-03T07:44:56Z
2026-05-03 03:49:58,39.8,38.5,30.01,NNW,342,0,1.2,95,0.00,,,0.00,0,0,n/a,2026-05-03T07:49:58Z
2026-05-03 03:54:57,39.7,38.4,30.01,NW,323,1.2,2.4,95,0.00,,,0.00,0,0,n/a,2026-05-03T07:54:57Z
2026-05-03 03:59:59,40.1,38.8,30.02,NW,306,0.9,2.4,95,0.00,,,0.00,0,0,n/a,2026-05-03T07:59:59Z
2026-05-03 04:04:56,40.3,39,30.02,NW,306,0,1.2,95,0.00,,,0.00,0,0,n/a,2026-05-03T08:04:56Z
2026-05-03 04:09:56,40.2,38.9,30.02,NW,306,0.4,1.2,95,0.00,,,0.00,0,0,n/a,2026-05-03T08:09:56Z
2026-05-03 04:14:59,40.1,38.8,30.02,NW,309,0.9,2.4,95,0.00,,,0.00,0,0,n/a,2026-05-03T08:14:59Z
2026-05-03 04:19:57,40,38.7,30.02,NW,316,0.7,1.2,95,0.00,,,0.00,0,0,n/a,2026-05-03T08:19:57Z
2026-05-03 04:24:56,39.9,38.6,30.02,NW,321,0.2,1.2,95,0.00,,,0.00,0,0,n/a,2026-05-03T08:24:56Z
2026-05-03 04:29:58,39.7,38.4,30.03,NW,322,0.3,2.4,95,0.00,,,0.00,0,0,n/a,2026-05-03T08:29:58Z
2026-05-03 04:34:57,39.7,38.4,30.03,NW,323,0.6,2.4,95,0.00,,,0.00,0,0,n/a,2026-05-03T08:34:57Z
2026-05-03 04:39:56,39.7,38.4,30.03,NW,323,0.5,2.3,95,0.00,,,0.00,0,0,n/a,2026-05-03T08:39:56Z
2026-05-03 04:44:59,39.9,38.6,30.03,NW,323,0.2,1.2,95,0.00,,,0.00,0,0,n/a,2026-05-03T08:44:59Z
2026-05-03 04:49:57,39.8,38.5,30.03,NW,323,0.1,1.2,95,0.00,,,0.00,0,0,n/a,2026-05-03T08:49:57Z
2026-05-03 04:54:56,39.7,38.4,30.03,NW,315,0.5,2.4,95,0.00,,,0.00,0,0,n/a,2026-05-03T08:54:56Z
2026-05-03 04:59:58,39.7,38.4,30.03,NW,313,0,0,95,0.00,,,0.00,0,0,n/a,2026-05-03T08:59:58Z
2026-05-03 05:04:59,39.5,38.2,30.03,NW,313,0,0,95,0.00,,,0.00,0,0,n/a,2026-05-03T09:04:59Z
2026-05-03 05:09:59,39.2,37.9,30.03,NW,313,0,0,95,0.00,,,0.00,0,0,n/a,2026-05-03T09:09:59Z
2026-05-03 05:14:58,39.1,37.8,30.04,NW,313,0,0,95,0.00,,,0.00,0,0,n/a,2026-05-03T09:14:58Z
2026-05-03 05:19:56,39.2,37.9,30.04,NW,313,0,0,95,0.00,,,0.00,0,0,n/a,2026-05-03T09:19:56Z
2026-05-03 05:24:59,39,37.7,30.04,NW,313,0,0,95,0.00,,,0.00,0,0,n/a,2026-05-03T09:24:59Z
2026-05-03 05:29:57,38.9,37.6,30.04,NW,313,0,0,95,0.00,,,0.00,0,0,n/a,2026-05-03T09:29:57Z
2026-05-03 05:34:56,38.7,37.4,30.04,NW,313,0,0,95,0.00,,,0.00,0,0,n/a,2026-05-03T09:34:56Z
2026-05-03 05:39:59,38.4,37.1,30.04,NW,313,0.3,2.4,95,0.00,,,0.00,0,0,n/a,2026-05-03T09:39:59Z
2026-05-03 05:44:58,38.1,36.8,30.05,NW,313,0.2,1.2,95,0.00,,,0.00,0,0,n/a,2026-05-03T09:44:58Z
2026-05-03 05:49:56,37.9,36.6,30.05,NW,313,0,1.2,95,0.00,,,0.00,0,0,n/a,2026-05-03T09:49:56Z
2026-05-03 05:54:58,37.7,36.4,30.05,NNW,331,1.3,2.4,95,0.00,,,0.00,0,0,n/a,2026-05-03T09:54:58Z
2026-05-03 05:59:56,37.8,36.5,30.06,NW,325,1.2,2.4,95,0.00,,,0.00,0,0,n/a,2026-05-03T09:59:56Z
2026-05-03 06:04:56,38.1,36.8,30.06,NNW,328,0.8,2.4,95.2,0.00,,,0.00,0,0,n/a,2026-05-03T10:04:56Z
2026-05-03 06:09:58,38.3,37.2,30.06,NNW,331,0.8,2.4,95.8,0.00,,,0.00,0,0,n/a,2026-05-03T10:09:58Z
2026-05-03 06:14:57,38.3,37.3,30.06,NNW,331,0.2,1.2,95.8,0.00,,,0.00,0,0,n/a,2026-05-03T10:14:57Z
2026-05-03 06:19:59,38.3,37.3,30.06,NNW,331,0.6,1.2,96,0.00,,,0.00,0,0,n/a,2026-05-03T10:19:59Z
2026-05-03 06:24:58,38.2,37.2,30.06,NNW,331,0.1,1.2,96,0.00,,,0.00,5,0,n/a,2026-05-03T10:24:58Z
2026-05-03 06:29:57,38,36.8,30.07,NNW,331,0,0,95.3,0.00,,,0.00,9,0,n/a,2026-05-03T10:29:57Z
2026-05-03 06:34:58,37.8,36.5,30.07,NNW,331,0,0,95,0.00,,,0.00,11,0,n/a,2026-05-03T10:34:58Z
2026-05-03 06:39:58,37.5,36.2,30.07,NNW,331,0,1.2,95,0.00,,,0.00,12,0,n/a,2026-05-03T10:39:58Z
2026-05-03 06:44:57,37.4,36.1,30.08,NNW,331,0,1.2,95,0.00,,,0.00,23,0,n/a,2026-05-03T10:44:57Z
2026-05-03 06:49:56,37.3,36,30.08,NNW,331,0,1.2,95,0.00,,,0.00,42,0,n/a,2026-05-03T10:49:56Z
2026-05-03 06:54:58,37.4,36.1,30.08,NNW,331,0,0,95,0.00,,,0.00,53,0,n/a,2026-05-03T10:54:58Z
2026-05-03 06:59:56,37.8,36.8,30.08,NNW,331,0,1.2,95.8,0.00,,,0.00,63,0,n/a,2026-05-03T10:59:56Z
2026-05-03 07:04:56,38.4,37.4,30.08,NNW,331,0.2,1.2,96,0.00,,,0.00,76,0,n/a,2026-05-03T11:04:56Z
2026-05-03 07:09:57,39.1,38.1,30.08,WNW,288,0,1.2,96,0.00,,,0.00,90,0,n/a,2026-05-03T11:09:57Z
2026-05-03 07:14:59,39.9,38.9,30.09,WNW,288,0.2,2.4,96,0.00,,,0.00,105,0,n/a,2026-05-03T11:14:59Z
2026-05-03 07:19:57,40.9,39.8,30.09,WNW,288,0.1,1.2,96,0.00,,,0.00,116,0,n/a,2026-05-03T11:19:57Z
2026-05-03 07:24:59,41.6,40.5,30.09,WNW,296,0.9,2.4,96,0.00,,,0.00,137,0,n/a,2026-05-03T11:24:59Z
2026-05-03 07:29:57,42,40.9,30.10,WNW,297,1.8,3.6,96,0.00,,,0.00,149,0,n/a,2026-05-03T11:29:57Z
2026-05-03 07:34:59,42,40.9,30.10,WNW,300,2.1,4.8,96,0.00,,,0.00,165,0,n/a,2026-05-03T11:34:59Z
2026-05-03 07:39:57,42.1,41,30.10,NW,305,2.3,4.8,96,0.00,,,0.00,179,0,n/a,2026-05-03T11:39:57Z
2026-05-03 07:44:59,42.2,41.1,30.11,WNW,301,3,6,96,0.00,,,0.00,192,0,n/a,2026-05-03T11:44:59Z
2026-05-03 07:49:56,42.5,41.4,30.11,NW,320,3,6,96,0.00,,,0.00,207,0.5,n/a,2026-05-03T11:49:56Z
2026-05-03 07:54:58,42.9,41.8,30.11,NW,317,2.6,7.2,96,0.00,,,0.00,221,0.6,n/a,2026-05-03T11:54:58Z
2026-05-03 07:59:57,43.4,42.2,30.11,NW,307,3.1,6,95.4,0.00,,,0.00,236,0.6,n/a,2026-05-03T11:59:57Z
2026-05-03 08:04:56,44,42.7,30.11,NW,318,2.8,7.2,95,0.00,,,0.00,246,0.7,n/a,2026-05-03T12:04:56Z
2026-05-03 08:09:56,44.7,43,30.11,NW,323,4,6,93.6,0.00,,,0.00,260,0.7,n/a,2026-05-03T12:09:56Z
2026-05-03 08:14:59,45.5,43.1,30.11,NW,317,3.6,6,91.4,0.00,,,0.00,274,0.8,n/a,2026-05-03T12:14:59Z
2026-05-03 08:19:56,46.2,43.2,30.11,NW,319,3.9,7.2,89.3,0.00,,,0.00,288,0.9,n/a,2026-05-03T12:19:56Z
2026-05-03 08:24:58,46.9,43.3,30.11,NW,311,2.6,6.9,87.3,0.00,,,0.00,302,1,n/a,2026-05-03T12:24:58Z
2026-05-03 08:29:59,47.5,43.2,30.12,NW,312,2.4,7.2,85,0.00,,,0.00,318,1,n/a,2026-05-03T12:29:59Z
2026-05-03 08:34:57,48.2,43.6,30.12,NW,320,2.9,8.4,83.9,0.00,,,0.00,334,1.1,n/a,2026-05-03T12:34:57Z
2026-05-03 08:39:59,48.8,43,30.12,NW,326,4.3,8.1,80.5,0.00,,,0.00,350,1.2,n/a,2026-05-03T12:39:59Z
2026-05-03 08:44:57,49.3,43.6,30.12,WNW,294,3.2,8.4,80.8,0.00,,,0.00,366,1.3,n/a,2026-05-03T12:44:57Z
2026-05-03 08:49:58,49.8,43.7,30.12,NW,319,4.2,8.4,79.6,0.00,,,0.00,385,1.4,n/a,2026-05-03T12:49:58Z
2026-05-03 08:54:56,50.2,43.8,30.12,NNW,328,4.1,6,78.5,0.00,,,0.00,406,1.5,n/a,2026-05-03T12:54:56Z
2026-05-03 08:59:57,50.6,43.3,30.12,WNW,303,5.6,13.2,75.8,0.00,,,0.00,425,1.6,n/a,2026-05-03T12:59:57Z
2026-05-03 09:04:57,50.9,43.2,30.12,NW,324,4.4,7.2,74.8,0.00,,,0.00,432,1.6,n/a,2026-05-03T13:04:57Z
2026-05-03 09:09:56,51.4,43.2,30.12,NW,318,6,12,73.4,0.00,,,0.00,452,1.7,n/a,2026-05-03T13:09:56Z
2026-05-03 09:14:59,51.8,43.3,30.12,NW,325,5.1,8.4,72.7,0.00,,,0.00,464,1.8,n/a,2026-05-03T13:14:59Z
2026-05-03 09:19:56,52.3,42.7,30.12,NNW,335,7.1,15,69.8,0.00,,,0.00,476,1.8,n/a,2026-05-03T13:19:56Z
2026-05-03 09:24:58,52.6,42.5,30.12,NNW,340,5.1,12.7,68.5,0.00,,,0.00,490,1.8,n/a,2026-05-03T13:24:58Z
2026-05-03 09:29:59,53.1,42.5,30.12,NW,319,7.1,15,67.2,0.00,,,0.00,504,2,n/a,2026-05-03T13:29:59Z
2026-05-03 09:34:57,53.4,42,30.12,NNW,328,5.3,12,65.3,0.00,,,0.00,517,2.2,n/a,2026-05-03T13:34:57Z
2026-05-03 09:39:59,53.7,41.5,30.12,NNW,329,6.8,12,63.3,0.00,,,0.00,529,2.3,n/a,2026-05-03T13:39:59Z
2026-05-03 09:44:57,54,41.3,30.12,NW,319,5.6,15.6,62,0.00,,,0.00,541,2.5,n/a,2026-05-03T13:44:57Z
2026-05-03 09:49:58,54.2,40,30.12,NW,325,6.3,16.1,58.5,0.00,,,0.00,554,2.7,n/a,2026-05-03T13:49:58Z
2026-05-03 09:54:56,54.5,40,30.12,NNW,340,7.6,15,57.8,0.00,,,0.00,566,2.9,n/a,2026-05-03T13:54:56Z
2026-05-03 09:59:58,54.8,39.8,30.12,North,0,8.3,13.2,56.8,0.00,,,0.00,577,3.1,n/a,2026-05-03T13:59:58Z
2026-05-03 10:04:57,55.1,40.2,30.12,NNW,344,8.3,16.1,57.2,0.00,,,0.00,589,3.2,n/a,2026-05-03T14:04:57Z
2026-05-03 10:09:57,55.4,39.9,30.12,North,3,7.6,13.2,56,0.00,,,0.00,598,3.4,n/a,2026-05-03T14:09:57Z
2026-05-03 10:14:59,55.5,40.6,30.12,North,0,7.5,14.4,57.1,0.00,,,0.00,610,3.5,n/a,2026-05-03T14:14:59Z
2026-05-03 10:19:56,55.7,39.9,30.12,North,353,9.3,16.1,55.3,0.00,,,0.00,622,3.6,n/a,2026-05-03T14:19:56Z
2026-05-03 10:24:56,55.7,39.1,30.12,NNW,333,6.5,16.1,53.5,0.00,,,0.00,628,3.8,n/a,2026-05-03T14:24:56Z
2026-05-03 10:29:57,56,39.8,30.12,North,351,6.6,17.3,54.5,0.00,,,0.00,638,3.9,n/a,2026-05-03T14:29:57Z
2026-05-03 10:34:59,56.2,39.7,30.12,NNW,339,6.8,16.1,53.8,0.00,,,0.00,643,4,n/a,2026-05-03T14:34:59Z
2026-05-03 10:39:57,56.4,39,30.12,NNW,332,9.5,17.3,51.9,0.00,,,0.00,656,4.1,n/a,2026-05-03T14:39:57Z
2026-05-03 10:44:58,56.7,39.6,30.12,WNW,300,4.8,13.2,52.6,0.00,,,0.00,668,4.3,n/a,2026-05-03T14:44:58Z
2026-05-03 10:49:56,57,38.8,30.12,NNW,335,8.9,15.6,50.6,0.00,,,0.00,677,4.4,n/a,2026-05-03T14:49:56Z
2026-05-03 10:54:57,56.9,38.5,30.12,NNW,343,8.6,16.1,50.1,0.00,,,0.00,686,4.5,n/a,2026-05-03T14:54:57Z
2026-05-03 10:59:58,57.1,37.6,30.13,NW,311,6.8,15,47.9,0.00,,,0.00,694,4.7,n/a,2026-05-03T14:59:58Z
2026-05-03 11:04:59,57.3,37.2,30.13,NNW,328,7.9,19.6,46.9,0.00,,,0.00,703,4.8,n/a,2026-05-03T15:04:59Z
2026-05-03 11:09:58,57.7,38,30.13,NNW,328,6.8,13.2,47.8,0.00,,,0.00,710,4.9,n/a,2026-05-03T15:09:58Z
2026-05-03 11:14:56,58.9,39.8,30.13,NNW,330,5.7,18.4,49.3,0.00,,,0.00,721,5.1,n/a,2026-05-03T15:14:56Z
2026-05-03 11:19:58,58.1,38.4,30.12,NW,314,5.3,12,47.7,0.00,,,0.00,728,5.2,n/a,2026-05-03T15:19:58Z
2026-05-03 11:24:59,58.3,38.1,30.12,NNW,339,8.7,18.4,46.8,0.00,,,0.00,735,5.3,n/a,2026-05-03T15:24:59Z
2026-05-03 11:29:56,58.6,39,30.12,North,352,4.5,12.7,48.2,0.00,,,0.00,740,5.4,n/a,2026-05-03T15:29:56Z
2026-05-03 11:34:58,59.2,38.8,30.12,North,354,4.8,12,46.8,0.00,,,0.00,744,5.6,n/a,2026-05-03T15:34:58Z
2026-05-03 11:39:56,59.4,38,30.12,NW,312,7.2,20.7,45,0.00,,,0.00,758,5.7,n/a,2026-05-03T15:39:56Z
2026-05-03 11:44:57,59,36.9,30.12,WNW,298,5.1,16.1,43.7,0.00,,,0.00,759,5.8,n/a,2026-05-03T15:44:57Z
2026-05-03 11:49:58,59,38,30.12,NW,316,5.2,15,45.6,0.00,,,0.00,766,5.9,n/a,2026-05-03T15:49:58Z
2026-05-03 11:54:56,59.5,36.9,30.12,NNW,335,8.7,18.4,42.8,0.00,,,0.00,770,5.9,n/a,2026-05-03T15:54:56Z
2026-05-03 11:59:57,59.6,38.3,30.12,WNW,299,5.6,15,45.2,0.00,,,0.00,773,6,n/a,2026-05-03T15:59:57Z
2026-05-03 12:04:56,59.5,36.7,30.12,NW,306,5.7,15,42.7,0.00,,,0.00,777,6.1,n/a,2026-05-03T16:04:56Z
2026-05-03 12:09:56,59.3,36.4,30.12,WNW,298,6.1,15,42.4,0.00,,,0.00,782,6.2,n/a,2026-05-03T16:09:56Z
2026-05-03 12:14:58,59.4,36.2,30.12,NNW,327,8.1,15,41.8,0.00,,,0.00,784,6.2,n/a,2026-05-03T16:14:58Z
2026-05-03 12:19:59,60,37.7,30.12,NW,310,4.2,12,43.5,0.00,,,0.00,788,6.3,n/a,2026-05-03T16:19:59Z
2026-05-03 12:24:57,60.2,36.4,30.12,NW,322,7,13.2,41,0.00,,,0.00,791,6.3,n/a,2026-05-03T16:24:57Z
2026-05-03 12:29:58,60.3,36.7,30.12,WNW,295,6.3,16.1,41.3,0.00,,,0.00,795,6.4,n/a,2026-05-03T16:29:58Z
2026-05-03 12:34:56,60.8,37,30.11,NW,321,7.3,18,41.2,0.00,,,0.00,798,6.5,n/a,2026-05-03T16:34:56Z
2026-05-03 12:39:58,60,34.6,30.11,NW,313,9.5,20.7,38.4,0.00,,,0.00,798,6.5,n/a,2026-05-03T16:39:58Z
2026-05-03 12:44:59,60.2,35.5,30.11,NNW,342,7.4,16.8,39.8,0.00,,,0.00,798,6.5,n/a,2026-05-03T16:44:59Z
2026-05-03 12:49:56,60.7,35.4,30.10,NW,322,10.5,18.4,38.8,0.00,,,0.00,802,6.5,n/a,2026-05-03T16:49:56Z
2026-05-03 12:54:58,60.7,35.7,30.10,NNW,342,7.6,16.1,39.3,0.00,,,0.00,802,6.6,n/a,2026-05-03T16:54:58Z
2026-05-03 12:59:59,61.2,36,30.10,NNW,348,9.2,17.3,38.9,0.00,,,0.00,803,6.6,n/a,2026-05-03T16:59:59Z
2026-05-03 13:04:58,61.7,37.2,30.10,NW,321,6.9,15,40.2,0.00,,,0.00,805,6.6,n/a,2026-05-03T17:04:58Z
2026-05-03 13:09:58,61.4,35.4,30.10,NW,321,7,17.3,37.8,0.00,,,0.00,805,6.6,n/a,2026-05-03T17:09:58Z
2026-05-03 13:14:57,61.6,37.9,30.10,NNE,25,3,7.2,41.5,0.00,,,0.00,800,6.8,n/a,2026-05-03T17:14:57Z
2026-05-03 13:19:58,62.5,38.1,30.09,NW,310,5.5,16.1,40.7,0.00,,,0.00,800,6.8,n/a,2026-05-03T17:19:58Z
2026-05-03 13:24:56,62.6,36.7,30.09,NNW,345,9.2,17.3,38.1,0.00,,,0.00,800,6.8,n/a,2026-05-03T17:24:56Z
2026-05-03 13:29:57,62.5,37.3,30.09,North,350,6.8,15,39.2,0.00,,,0.00,800,6.8,n/a,2026-05-03T17:29:57Z
2026-05-03 13:34:59,62.5,34.3,30.09,NNW,331,7.5,16.1,34.9,0.00,,,0.00,798,6.8,n/a,2026-05-03T17:34:59Z
2026-05-03 13:39:58,62.4,35.9,30.09,NW,317,5.4,12.7,37.2,0.00,,,0.00,796,6.7,n/a,2026-05-03T17:39:58Z
2026-05-03 13:44:55,62.8,35.1,30.09,NW,311,4.9,12,35.6,0.00,,,0.00,795,6.7,n/a,2026-05-03T17:44:55Z
2026-05-03 13:49:57,63,36.7,30.09,NW,319,4.4,10.8,37.7,0.00,,,0.00,793,6.7,n/a,2026-05-03T17:49:57Z
2026-05-03 13:54:58,63.1,35.7,30.09,NW,313,6.1,13.2,36,0.00,,,0.00,788,6.6,n/a,2026-05-03T17:54:58Z
2026-05-03 13:59:59,62.8,35.1,30.09,NW,322,6.8,19.6,35.6,0.00,,,0.00,782,6.5,n/a,2026-05-03T17:59:59Z
2026-05-03 14:04:59,63.6,37.4,30.09,NNW,335,7.6,17.3,37.9,0.00,,,0.00,780,6.5,n/a,2026-05-03T18:04:59Z
2026-05-03 14:09:59,63.1,33.8,30.09,NW,321,6.1,13.2,33.5,0.00,,,0.00,775,6.4,n/a,2026-05-03T18:09:59Z
2026-05-03 14:14:57,63,35.8,30.09,West,263,4.5,8.4,36.2,0.00,,,0.00,770,6.3,n/a,2026-05-03T18:14:57Z
2026-05-03 14:19:58,63.3,36,30.08,NW,305,5.3,15,36.3,0.00,,,0.00,768,6.3,n/a,2026-05-03T18:19:58Z
2026-05-03 14:24:59,64,36.5,30.08,WNW,299,4.1,8.4,36,0.00,,,0.00,761,6.2,n/a,2026-05-03T18:24:59Z
2026-05-03 14:29:56,64,35.5,30.08,WNW,287,5.6,12,34.7,0.00,,,0.00,754,6.1,n/a,2026-05-03T18:29:56Z
2026-05-03 14:34:58,64.1,34,30.07,NW,310,6.1,15,32.7,0.00,,,0.00,752,6,n/a,2026-05-03T18:34:58Z
2026-05-03 14:39:59,63.8,34.1,30.07,West,266,5.2,11.5,33.1,0.00,,,0.00,744,5.9,n/a,2026-05-03T18:39:59Z
2026-05-03 14:44:57,63.9,34.3,30.07,North,356,8.7,18.4,33.3,0.00,,,0.00,738,5.8,n/a,2026-05-03T18:44:57Z
2026-05-03 14:49:57,63.9,34.3,30.07,West,274,5.8,16.1,33.2,0.00,,,0.00,733,5.7,n/a,2026-05-03T18:49:57Z
2026-05-03 14:54:59,64.9,35.8,30.07,NW,306,5,14.4,34.1,0.00,,,0.00,724,5.6,n/a,2026-05-03T18:54:59Z
2026-05-03 14:59:59,64.8,35.3,30.07,WNW,298,6.1,15,33.5,0.00,,,0.00,717,5.5,n/a,2026-05-03T18:59:59Z
2026-05-03 15:04:59,64.3,33.3,30.07,WSW,258,5,12.7,31.4,0.00,,,0.00,710,5.4,n/a,2026-05-03T19:04:59Z
2026-05-03 15:09:59,63.9,33.7,30.07,WSW,254,5.6,13.2,32.4,0.00,,,0.00,703,5.3,n/a,2026-05-03T19:09:59Z
2026-05-03 15:14:57,64.4,33.8,30.07,NNW,327,6.7,13.2,31.9,0.00,,,0.00,689,5.1,n/a,2026-05-03T19:14:57Z
2026-05-03 15:19:58,65.7,37.1,30.06,NW,323,3.5,10.8,35,0.00,,,0.00,682,5,n/a,2026-05-03T19:19:58Z
2026-05-03 15:24:59,66.1,36,30.06,West,270,4.3,10.8,32.8,0.00,,,0.00,675,4.9,n/a,2026-05-03T19:24:59Z
2026-05-03 15:29:56,65.2,34.7,30.06,SSW,210,6.4,17.3,32.2,0.00,,,0.00,664,4.8,n/a,2026-05-03T19:29:56Z
2026-05-03 15:34:58,64.9,35.1,30.06,West,279,5.5,15,33,0.00,,,0.00,656,4.7,n/a,2026-05-03T19:34:58Z
2026-05-03 15:39:56,65.8,35.7,30.06,NW,318,5.6,11.5,32.7,0.00,,,0.00,643,4.5,n/a,2026-05-03T19:39:56Z
2026-05-03 15:44:58,65.9,35.8,30.06,WNW,285,5.2,15,32.8,0.00,,,0.00,636,4.4,n/a,2026-05-03T19:44:58Z
2026-05-03 15:49:59,65.9,35.7,30.05,WNW,298,4.7,12,32.8,0.00,,,0.00,624,4.2,n/a,2026-05-03T19:49:59Z
2026-05-03 15:54:56,66.9,36.9,30.05,NNW,343,4.6,9.6,33,0.00,,,0.00,612,4.1,n/a,2026-05-03T19:54:56Z
2026-05-03 15:59:57,67.3,37,30.05,WNW,298,5.2,13.2,32.9,0.00,,,0.00,603,4,n/a,2026-05-03T19:59:57Z
2026-05-03 16:04:56,66.8,36.2,30.05,WNW,292,5.2,12.7,32.3,0.00,,,0.00,592,3.9,n/a,2026-05-03T20:04:56Z
2026-05-03 16:09:56,67,36.2,30.05,NW,321,6.6,14.4,32.2,0.00,,,0.00,584,3.7,n/a,2026-05-03T20:09:56Z
2026-05-03 16:14:58,66.7,36,30.05,NW,326,5.4,15,32,0.00,,,0.00,575,3.6,n/a,2026-05-03T20:14:58Z
2026-05-03 16:19:59,66.7,36.3,30.04,NNW,343,5.8,13.2,32.6,0.00,,,0.00,561,3.4,n/a,2026-05-03T20:19:59Z
2026-05-03 16:24:56,66.6,35,30.04,West,273,3.3,10.8,31,0.00,,,0.00,545,3.3,n/a,2026-05-03T20:24:56Z
2026-05-03 16:29:57,67.3,36.6,30.04,NW,326,6.2,13.2,32.2,0.00,,,0.00,540,3.2,n/a,2026-05-03T20:29:57Z
2026-05-03 16:34:59,67.2,35.3,30.04,NNW,332,6.8,16.1,30.8,0.00,,,0.00,526,3,n/a,2026-05-03T20:34:59Z
2026-05-03 16:39:56,66.8,34,30.04,NW,317,7.1,13.2,29.6,0.00,,,0.00,512,2.9,n/a,2026-05-03T20:39:56Z
2026-05-03 16:44:58,66.7,35,30.04,West,281,4.1,11.5,30.8,0.00,,,0.00,499,2.8,n/a,2026-05-03T20:44:58Z
2026-05-03 16:49:59,67.2,36.1,30.03,NNW,337,4.9,10.8,31.7,0.00,,,0.00,483,2.6,n/a,2026-05-03T20:49:59Z
2026-05-03 16:54:57,67.5,36.4,30.03,NNW,337,4.9,12,31.7,0.00,,,0.00,473,2.5,n/a,2026-05-03T20:54:57Z
2026-05-03 16:59:58,67.9,36.2,30.03,NW,320,4.7,12,31.1,0.00,,,0.00,448,2.4,n/a,2026-05-03T20:59:58Z
2026-05-03 17:04:58,67.8,36.3,30.03,West,272,4.5,11.5,31.3,0.00,,,0.00,424,2.2,n/a,2026-05-03T21:04:58Z
2026-05-03 17:09:58,68,35.8,30.03,NNW,327,3.6,9.6,30.6,0.00,,,0.00,387,2.1,n/a,2026-05-03T21:09:58Z
2026-05-03 17:14:57,68.1,33.9,30.03,NW,308,7.9,13.2,28.3,0.00,,,0.00,366,2.1,n/a,2026-05-03T21:14:57Z
2026-05-03 17:19:57,67.6,34.8,30.03,NW,326,6.8,13.2,29.7,0.00,,,0.00,339,1.9,n/a,2026-05-03T21:19:57Z
2026-05-03 17:24:59,67.3,35.8,30.03,NNW,336,8.3,13.2,31.2,0.00,,,0.00,318,1.8,n/a,2026-05-03T21:24:59Z
2026-05-03 17:29:56,67.1,36.4,30.03,NNW,329,5.4,12,32.2,0.00,,,0.00,301,1.7,n/a,2026-05-03T21:29:56Z
2026-05-03 17:34:58,67.5,36.2,30.03,WSW,241,3.2,7.2,31.5,0.00,,,0.00,279,1.6,n/a,2026-05-03T21:34:58Z
2026-05-03 17:39:56,68.1,36.1,30.03,WNW,282,2.3,4.8,30.9,0.00,,,0.00,255,1.5,n/a,2026-05-03T21:39:56Z
2026-05-03 17:44:57,68.7,36.9,30.03,WNW,286,2.3,7.2,31.2,0.00,,,0.00,237,1.4,n/a,2026-05-03T21:44:57Z
2026-05-03 17:49:58,69.2,36.6,30.02,West,281,4.7,12,30.2,0.00,,,0.00,227,1.3,n/a,2026-05-03T21:49:58Z
2026-05-03 17:54:56,68.9,34.3,30.02,West,276,3.6,10.4,27.9,0.00,,,0.00,225,1.2,n/a,2026-05-03T21:54:56Z
2026-05-03 17:59:58,68.6,34.9,30.03,WNW,284,4.2,12,28.9,0.00,,,0.00,234,1.1,n/a,2026-05-03T21:59:58Z
2026-05-03 18:04:57,68.3,35.3,30.03,NW,308,4.3,8.4,29.6,0.00,,,0.00,237,1,n/a,2026-05-03T22:04:57Z
2026-05-03 18:09:57,68.3,35.2,30.03,NW,312,3.5,10.8,29.5,0.00,,,0.00,237,0.9,n/a,2026-05-03T22:09:57Z
2026-05-03 18:14:59,68.1,34.9,30.03,NNW,330,5.7,8.4,29.3,0.00,,,0.00,237,0.9,n/a,2026-05-03T22:14:59Z
2026-05-03 18:19:56,67.7,35.2,30.03,North,354,4,8.1,30,0.00,,,0.00,230,0.8,n/a,2026-05-03T22:19:56Z
2026-05-03 18:24:58,67.8,34.9,30.03,NW,325,3.6,7.2,29.6,0.00,,,0.00,218,0.7,n/a,2026-05-03T22:24:58Z
2026-05-03 18:29:59,68.1,36,30.03,NNW,331,2.5,4.8,30.6,0.00,,,0.00,202,0.6,n/a,2026-05-03T22:29:59Z
2026-05-03 18:34:57,68.5,36.2,30.03,NW,304,2.5,6,30.5,0.00,,,0.00,188,0.6,n/a,2026-05-03T22:34:57Z
2026-05-03 18:39:59,68.7,34.4,30.03,WNW,293,2.4,5.8,28.2,0.00,,,0.00,171,0.5,n/a,2026-05-03T22:39:59Z
2026-05-03 18:44:56,68.8,35.3,30.03,WNW,284,2.2,6,29.1,0.00,,,0.00,155,0.5,n/a,2026-05-03T22:44:56Z
2026-05-03 18:49:58,69.1,35.6,30.03,NW,305,1.1,3.6,29.1,0.00,,,0.00,127,0,n/a,2026-05-03T22:49:58Z
2026-05-03 18:54:56,69.5,35.8,30.03,West,262,0.9,3.6,29,0.00,,,0.00,105,0,n/a,2026-05-03T22:54:56Z
2026-05-03 18:59:57,69.5,35.9,30.03,WSW,256,1.2,3.5,29.2,0.00,,,0.00,91,0,n/a,2026-05-03T22:59:57Z
2026-05-03 19:04:57,69.5,36.6,30.03,NW,326,1.3,3.6,29.9,0.00,,,0.00,81,0,n/a,2026-05-03T23:04:57Z
2026-05-03 19:09:56,69.8,35.7,30.03,NW,317,1.6,4.8,28.5,0.00,,,0.00,74,0,n/a,2026-05-03T23:09:56Z
2026-05-03 19:14:56,70,36.4,30.03,WNW,294,0.7,2.4,29.1,0.00,,,0.00,65,0,n/a,2026-05-03T23:14:56Z
2026-05-03 19:19:57,70.1,36.5,30.03,NW,314,1.1,4.8,29.2,0.00,,,0.00,56,0,n/a,2026-05-03T23:19:57Z